sensor_id;sensor_type;location;lat;lon;timestamp;temperature;humidity
44477;DHT22;30180;44.788;10.366;2023-05-20T00:01:01;18.70;76.40
44477;DHT22;30180;44.788;10.366;2023-05-20T00:03:29;18.70;76.40
44477;DHT22;30180;44.788;10.366;2023-05-20T00:05:58;18.70;76.40
44477;DHT22;30180;44.788;10.366;2023-05-20T00:08:26;18.70;76.40
44477;DHT22;30180;44.788;10.366;2023-05-20T00:10:55;18.70;76.40
44477;DHT22;30180;44.788;10.366;2023-05-20T00:13:24;18.70;76.40
44477;DHT22;30180;44.788;10.366;2023-05-20T00:15:53;18.70;76.40
44477;DHT22;30180;44.788;10.366;2023-05-20T00:18:21;18.70;76.40
44477;DHT22;30180;44.788;10.366;2023-05-20T00:20:49;18.60;76.40
44477;DHT22;30180;44.788;10.366;2023-05-20T00:23:19;18.70;76.50
44477;DHT22;30180;44.788;10.366;2023-05-20T00:25:48;18.70;76.40
44477;DHT22;30180;44.788;10.366;2023-05-20T00:28:16;18.70;76.50
44477;DHT22;30180;44.788;10.366;2023-05-20T00:30:47;18.70;76.50
44477;DHT22;30180;44.788;10.366;2023-05-20T00:33:15;18.60;76.40
44477;DHT22;30180;44.788;10.366;2023-05-20T00:35:43;18.70;76.50
44477;DHT22;30180;44.788;10.366;2023-05-20T00:38:12;18.70;76.50
44477;DHT22;30180;44.788;10.366;2023-05-20T00:40:40;18.60;76.40
44477;DHT22;30180;44.788;10.366;2023-05-20T00:43:09;18.70;76.50
44477;DHT22;30180;44.788;10.366;2023-05-20T00:45:37;18.60;76.50
44477;DHT22;30180;44.788;10.366;2023-05-20T00:48:07;18.70;76.50
44477;DHT22;30180;44.788;10.366;2023-05-20T00:50:36;18.60;76.40
44477;DHT22;30180;44.788;10.366;2023-05-20T00:53:05;18.60;76.50
44477;DHT22;30180;44.788;10.366;2023-05-20T00:55:34;18.70;76.50
44477;DHT22;30180;44.788;10.366;2023-05-20T00:58:03;18.70;76.60
44477;DHT22;30180;44.788;10.366;2023-05-20T01:00:31;18.60;76.50
44477;DHT22;30180;44.788;10.366;2023-05-20T01:03:00;18.60;76.50
44477;DHT22;30180;44.788;10.366;2023-05-20T01:05:30;18.60;76.50
44477;DHT22;30180;44.788;10.366;2023-05-20T01:07:58;18.60;76.50
44477;DHT22;30180;44.788;10.366;2023-05-20T01:10:27;18.60;76.50
44477;DHT22;30180;44.788;10.366;2023-05-20T01:12:59;18.60;76.50
44477;DHT22;30180;44.788;10.366;2023-05-20T01:15:29;18.60;76.50
44477;DHT22;30180;44.788;10.366;2023-05-20T01:18:01;18.60;76.50
44477;DHT22;30180;44.788;10.366;2023-05-20T01:20:34;18.60;76.50
44477;DHT22;30180;44.788;10.366;2023-05-20T01:23:04;18.60;76.60
44477;DHT22;30180;44.788;10.366;2023-05-20T01:25:32;18.60;76.50
44477;DHT22;30180;44.788;10.366;2023-05-20T01:28:01;18.60;76.50
44477;DHT22;30180;44.788;10.366;2023-05-20T01:30:34;18.60;76.50
44477;DHT22;30180;44.788;10.366;2023-05-20T01:33:08;18.60;76.50
44477;DHT22;30180;44.788;10.366;2023-05-20T01:35:38;18.60;76.60
44477;DHT22;30180;44.788;10.366;2023-05-20T01:38:08;18.60;76.60
44477;DHT22;30180;44.788;10.366;2023-05-20T01:40:37;18.60;76.60
44477;DHT22;30180;44.788;10.366;2023-05-20T01:43:08;18.60;76.60
44477;DHT22;30180;44.788;10.366;2023-05-20T01:45:36;18.60;76.60
44477;DHT22;30180;44.788;10.366;2023-05-20T01:48:05;18.60;76.60
44477;DHT22;30180;44.788;10.366;2023-05-20T01:50:34;18.60;76.60
44477;DHT22;30180;44.788;10.366;2023-05-20T01:53:02;18.60;76.60
44477;DHT22;30180;44.788;10.366;2023-05-20T01:55:33;18.60;76.60
44477;DHT22;30180;44.788;10.366;2023-05-20T01:58:01;18.60;76.60
44477;DHT22;30180;44.788;10.366;2023-05-20T02:00:31;18.60;76.60
44477;DHT22;30180;44.788;10.366;2023-05-20T02:03:00;18.60;76.60
44477;DHT22;30180;44.788;10.366;2023-05-20T02:05:29;18.60;76.60
44477;DHT22;30180;44.788;10.366;2023-05-20T02:07:58;18.60;76.60
44477;DHT22;30180;44.788;10.366;2023-05-20T02:10:26;18.60;76.60
44477;DHT22;30180;44.788;10.366;2023-05-20T02:12:56;18.60;76.60
44477;DHT22;30180;44.788;10.366;2023-05-20T02:15:25;18.60;76.60
44477;DHT22;30180;44.788;10.366;2023-05-20T02:17:53;18.60;76.60
44477;DHT22;30180;44.788;10.366;2023-05-20T02:20:24;18.60;76.60
44477;DHT22;30180;44.788;10.366;2023-05-20T02:22:52;18.60;76.60
44477;DHT22;30180;44.788;10.366;2023-05-20T02:25:20;18.60;76.60
44477;DHT22;30180;44.788;10.366;2023-05-20T02:27:49;18.60;76.60
44477;DHT22;30180;44.788;10.366;2023-05-20T02:30:19;18.60;76.60
44477;DHT22;30180;44.788;10.366;2023-05-20T02:32:47;18.60;76.60
44477;DHT22;30180;44.788;10.366;2023-05-20T02:35:16;18.60;76.60
44477;DHT22;30180;44.788;10.366;2023-05-20T02:37:44;18.60;76.60
44477;DHT22;30180;44.788;10.366;2023-05-20T02:40:14;18.60;76.70
44477;DHT22;30180;44.788;10.366;2023-05-20T02:42:42;18.60;76.70
44477;DHT22;30180;44.788;10.366;2023-05-20T02:45:11;18.60;76.60
44477;DHT22;30180;44.788;10.366;2023-05-20T02:47:40;18.60;76.60
44477;DHT22;30180;44.788;10.366;2023-05-20T02:50:09;18.60;76.70
44477;DHT22;30180;44.788;10.366;2023-05-20T02:52:37;18.60;76.70
44477;DHT22;30180;44.788;10.366;2023-05-20T02:55:08;18.60;76.70
44477;DHT22;30180;44.788;10.366;2023-05-20T02:57:37;18.60;76.70
44477;DHT22;30180;44.788;10.366;2023-05-20T03:00:07;18.60;76.70
44477;DHT22;30180;44.788;10.366;2023-05-20T03:02:37;18.60;76.70
44477;DHT22;30180;44.788;10.366;2023-05-20T03:05:08;18.60;76.70
44477;DHT22;30180;44.788;10.366;2023-05-20T03:07:36;18.60;76.70
44477;DHT22;30180;44.788;10.366;2023-05-20T03:10:06;18.60;76.70
44477;DHT22;30180;44.788;10.366;2023-05-20T03:12:35;18.60;76.70
44477;DHT22;30180;44.788;10.366;2023-05-20T03:15:03;18.50;76.60
44477;DHT22;30180;44.788;10.366;2023-05-20T03:17:32;18.60;76.70
44477;DHT22;30180;44.788;10.366;2023-05-20T03:20:01;18.60;76.70
44477;DHT22;30180;44.788;10.366;2023-05-20T03:22:31;18.60;76.70
44477;DHT22;30180;44.788;10.366;2023-05-20T03:24:59;18.60;76.80
44477;DHT22;30180;44.788;10.366;2023-05-20T03:27:28;18.60;76.80
44477;DHT22;30180;44.788;10.366;2023-05-20T03:29:57;18.60;76.80
44477;DHT22;30180;44.788;10.366;2023-05-20T03:32:25;18.60;76.80
44477;DHT22;30180;44.788;10.366;2023-05-20T03:34:53;18.60;76.90
44477;DHT22;30180;44.788;10.366;2023-05-20T03:37:24;18.60;76.90
44477;DHT22;30180;44.788;10.366;2023-05-20T03:39:54;18.60;76.90
44477;DHT22;30180;44.788;10.366;2023-05-20T03:42:22;18.60;76.90
44477;DHT22;30180;44.788;10.366;2023-05-20T03:44:50;18.60;76.90
44477;DHT22;30180;44.788;10.366;2023-05-20T03:47:19;18.70;77.00
44477;DHT22;30180;44.788;10.366;2023-05-20T03:49:47;18.70;77.00
44477;DHT22;30180;44.788;10.366;2023-05-20T03:52:16;18.70;77.10
44477;DHT22;30180;44.788;10.366;2023-05-20T03:54:44;18.70;77.10
44477;DHT22;30180;44.788;10.366;2023-05-20T03:57:14;18.70;77.10
44477;DHT22;30180;44.788;10.366;2023-05-20T03:59:43;18.70;77.10
44477;DHT22;30180;44.788;10.366;2023-05-20T04:02:11;18.80;77.10
44477;DHT22;30180;44.788;10.366;2023-05-20T04:04:39;18.70;77.10
44477;DHT22;30180;44.788;10.366;2023-05-20T04:07:09;18.80;77.10
44477;DHT22;30180;44.788;10.366;2023-05-20T04:09:37;18.80;77.10
44477;DHT22;30180;44.788;10.366;2023-05-20T04:12:06;18.80;77.10
44477;DHT22;30180;44.788;10.366;2023-05-20T04:14:35;18.80;77.10
44477;DHT22;30180;44.788;10.366;2023-05-20T04:17:05;18.80;77.10
44477;DHT22;30180;44.788;10.366;2023-05-20T04:19:33;18.80;77.10
44477;DHT22;30180;44.788;10.366;2023-05-20T04:22:03;18.80;77.10
44477;DHT22;30180;44.788;10.366;2023-05-20T04:24:31;18.80;77.10
44477;DHT22;30180;44.788;10.366;2023-05-20T04:27:00;18.90;77.20
44477;DHT22;30180;44.788;10.366;2023-05-20T04:29:28;18.90;77.10
44477;DHT22;30180;44.788;10.366;2023-05-20T04:32:01;18.90;77.10
44477;DHT22;30180;44.788;10.366;2023-05-20T04:34:30;18.90;77.10
44477;DHT22;30180;44.788;10.366;2023-05-20T04:37:00;18.90;77.10
44477;DHT22;30180;44.788;10.366;2023-05-20T04:39:29;18.90;77.10
44477;DHT22;30180;44.788;10.366;2023-05-20T04:41:57;18.90;77.10
44477;DHT22;30180;44.788;10.366;2023-05-20T04:44:25;18.90;77.10
44477;DHT22;30180;44.788;10.366;2023-05-20T04:46:54;18.90;77.10
44477;DHT22;30180;44.788;10.366;2023-05-20T04:49:25;18.90;77.10
44477;DHT22;30180;44.788;10.366;2023-05-20T04:51:54;18.90;77.10
44477;DHT22;30180;44.788;10.366;2023-05-20T04:54:23;18.90;77.20
44477;DHT22;30180;44.788;10.366;2023-05-20T04:56:51;18.90;77.10
44477;DHT22;30180;44.788;10.366;2023-05-20T04:59:19;18.90;77.10
44477;DHT22;30180;44.788;10.366;2023-05-20T05:01:48;18.90;77.10
44477;DHT22;30180;44.788;10.366;2023-05-20T05:04:16;18.90;77.10
44477;DHT22;30180;44.788;10.366;2023-05-20T05:06:48;18.90;77.10
44477;DHT22;30180;44.788;10.366;2023-05-20T05:09:16;18.90;77.10
44477;DHT22;30180;44.788;10.366;2023-05-20T05:11:45;18.90;77.10
44477;DHT22;30180;44.788;10.366;2023-05-20T05:14:13;18.90;77.10
44477;DHT22;30180;44.788;10.366;2023-05-20T05:16:41;18.90;77.10
44477;DHT22;30180;44.788;10.366;2023-05-20T05:19:10;18.90;77.10
44477;DHT22;30180;44.788;10.366;2023-05-20T05:21:39;18.90;77.10
44477;DHT22;30180;44.788;10.366;2023-05-20T05:24:09;18.90;77.10
44477;DHT22;30180;44.788;10.366;2023-05-20T05:26:37;18.90;77.10
44477;DHT22;30180;44.788;10.366;2023-05-20T05:29:05;18.90;77.10
44477;DHT22;30180;44.788;10.366;2023-05-20T05:31:37;18.90;77.10
44477;DHT22;30180;44.788;10.366;2023-05-20T05:34:05;18.90;77.10
44477;DHT22;30180;44.788;10.366;2023-05-20T05:36:33;18.90;77.10
44477;DHT22;30180;44.788;10.366;2023-05-20T05:39:02;18.90;77.10
44477;DHT22;30180;44.788;10.366;2023-05-20T05:41:32;18.90;77.10
44477;DHT22;30180;44.788;10.366;2023-05-20T05:44:00;18.90;77.10
44477;DHT22;30180;44.788;10.366;2023-05-20T05:46:28;18.90;77.10
44477;DHT22;30180;44.788;10.366;2023-05-20T05:48:57;18.90;77.70
44477;DHT22;30180;44.788;10.366;2023-05-20T05:51:26;18.90;77.10
44477;DHT22;30180;44.788;10.366;2023-05-20T05:53:55;18.90;77.10
44477;DHT22;30180;44.788;10.366;2023-05-20T05:56:23;18.90;77.10
44477;DHT22;30180;44.788;10.366;2023-05-20T05:58:53;18.80;77.00
44477;DHT22;30180;44.788;10.366;2023-05-20T06:01:21;18.90;77.10
44477;DHT22;30180;44.788;10.366;2023-05-20T06:03:49;18.90;77.10
44477;DHT22;30180;44.788;10.366;2023-05-20T06:06:18;18.90;77.10
44477;DHT22;30180;44.788;10.366;2023-05-20T06:08:46;18.90;77.00
44477;DHT22;30180;44.788;10.366;2023-05-20T06:11:14;18.80;77.00
44477;DHT22;30180;44.788;10.366;2023-05-20T06:13:42;18.80;77.00
44477;DHT22;30180;44.788;10.366;2023-05-20T06:16:12;18.90;77.00
44477;DHT22;30180;44.788;10.366;2023-05-20T06:18:41;18.90;77.00
44477;DHT22;30180;44.788;10.366;2023-05-20T06:21:09;18.80;77.00
44477;DHT22;30180;44.788;10.366;2023-05-20T06:23:38;18.90;77.00
44477;DHT22;30180;44.788;10.366;2023-05-20T06:26:06;18.90;77.00
44477;DHT22;30180;44.788;10.366;2023-05-20T06:28:34;18.80;76.40
44477;DHT22;30180;44.788;10.366;2023-05-20T06:31:03;18.80;77.00
44477;DHT22;30180;44.788;10.366;2023-05-20T06:33:33;18.80;76.90
44477;DHT22;30180;44.788;10.366;2023-05-20T06:36:03;18.80;76.90
44477;DHT22;30180;44.788;10.366;2023-05-20T06:38:31;18.80;76.90
44477;DHT22;30180;44.788;10.366;2023-05-20T06:41:00;18.80;76.90
44477;DHT22;30180;44.788;10.366;2023-05-20T06:43:28;18.80;76.90
44477;DHT22;30180;44.788;10.366;2023-05-20T06:45:57;18.80;76.80
44477;DHT22;30180;44.788;10.366;2023-05-20T06:48:25;18.80;76.90
44477;DHT22;30180;44.788;10.366;2023-05-20T06:50:54;18.80;76.80
44477;DHT22;30180;44.788;10.366;2023-05-20T06:53:23;18.80;76.90
44477;DHT22;30180;44.788;10.366;2023-05-20T06:55:52;18.70;76.80
44477;DHT22;30180;44.788;10.366;2023-05-20T06:58:21;18.70;76.80
44477;DHT22;30180;44.788;10.366;2023-05-20T07:00:50;18.70;76.80
44477;DHT22;30180;44.788;10.366;2023-05-20T07:03:18;18.70;76.80
44477;DHT22;30180;44.788;10.366;2023-05-20T07:05:47;18.70;76.80
44477;DHT22;30180;44.788;10.366;2023-05-20T07:08:16;18.70;76.80
44477;DHT22;30180;44.788;10.366;2023-05-20T07:10:44;18.70;76.80
44477;DHT22;30180;44.788;10.366;2023-05-20T07:13:13;18.70;76.80
44477;DHT22;30180;44.788;10.366;2023-05-20T07:15:44;18.70;76.80
44477;DHT22;30180;44.788;10.366;2023-05-20T07:18:13;18.70;76.80
44477;DHT22;30180;44.788;10.366;2023-05-20T07:20:42;18.70;76.80
44477;DHT22;30180;44.788;10.366;2023-05-20T07:23:10;18.70;76.80
44477;DHT22;30180;44.788;10.366;2023-05-20T07:25:42;18.70;76.80
44477;DHT22;30180;44.788;10.366;2023-05-20T07:28:11;18.70;76.90
44477;DHT22;30180;44.788;10.366;2023-05-20T07:30:39;18.70;76.80
44477;DHT22;30180;44.788;10.366;2023-05-20T07:33:08;18.70;76.80
44477;DHT22;30180;44.788;10.366;2023-05-20T07:35:37;18.70;76.80
44477;DHT22;30180;44.788;10.366;2023-05-20T07:38:05;18.70;76.80
44477;DHT22;30180;44.788;10.366;2023-05-20T07:40:33;18.70;76.80
44477;DHT22;30180;44.788;10.366;2023-05-20T07:43:04;18.70;76.80
44477;DHT22;30180;44.788;10.366;2023-05-20T07:45:34;18.70;76.80
44477;DHT22;30180;44.788;10.366;2023-05-20T07:48:03;18.70;76.80
44477;DHT22;30180;44.788;10.366;2023-05-20T07:50:32;18.70;76.80
44477;DHT22;30180;44.788;10.366;2023-05-20T07:53:00;18.70;76.80
44477;DHT22;30180;44.788;10.366;2023-05-20T07:55:29;18.70;76.80
44477;DHT22;30180;44.788;10.366;2023-05-20T07:57:58;18.70;76.80
44477;DHT22;30180;44.788;10.366;2023-05-20T08:00:28;18.60;76.80
44477;DHT22;30180;44.788;10.366;2023-05-20T08:02:56;18.70;76.80
44477;DHT22;30180;44.788;10.366;2023-05-20T08:05:25;18.70;76.80
44477;DHT22;30180;44.788;10.366;2023-05-20T08:07:53;18.70;76.80
44477;DHT22;30180;44.788;10.366;2023-05-20T08:10:22;18.70;77.40
44477;DHT22;30180;44.788;10.366;2023-05-20T08:12:50;18.70;76.80
44477;DHT22;30180;44.788;10.366;2023-05-20T08:15:19;18.70;76.80
44477;DHT22;30180;44.788;10.366;2023-05-20T08:17:49;18.70;76.80
44477;DHT22;30180;44.788;10.366;2023-05-20T08:20:17;18.70;76.80
44477;DHT22;30180;44.788;10.366;2023-05-20T08:22:45;18.70;76.80
44477;DHT22;30180;44.788;10.366;2023-05-20T08:25:14;18.70;76.80
44477;DHT22;30180;44.788;10.366;2023-05-20T08:27:42;18.60;76.70
44477;DHT22;30180;44.788;10.366;2023-05-20T08:30:11;18.70;76.80
44477;DHT22;30180;44.788;10.366;2023-05-20T08:32:39;18.70;76.80
44477;DHT22;30180;44.788;10.366;2023-05-20T08:35:10;18.60;76.70
44477;DHT22;30180;44.788;10.366;2023-05-20T08:37:38;18.60;76.70
44477;DHT22;30180;44.788;10.366;2023-05-20T08:40:08;18.70;76.70
44477;DHT22;30180;44.788;10.366;2023-05-20T08:42:40;18.60;76.70
44477;DHT22;30180;44.788;10.366;2023-05-20T08:45:10;18.60;76.70
44477;DHT22;30180;44.788;10.366;2023-05-20T08:47:41;18.60;76.70
44477;DHT22;30180;44.788;10.366;2023-05-20T08:50:12;18.60;76.70
44477;DHT22;30180;44.788;10.366;2023-05-20T08:52:42;18.60;76.70
44477;DHT22;30180;44.788;10.366;2023-05-20T08:55:13;18.70;76.70
44477;DHT22;30180;44.788;10.366;2023-05-20T08:57:43;18.70;76.70
44477;DHT22;30180;44.788;10.366;2023-05-20T09:00:14;18.70;76.70
44477;DHT22;30180;44.788;10.366;2023-05-20T09:02:44;18.60;76.70
44477;DHT22;30180;44.788;10.366;2023-05-20T09:05:14;18.60;76.70
44477;DHT22;30180;44.788;10.366;2023-05-20T09:07:42;18.60;76.70
44477;DHT22;30180;44.788;10.366;2023-05-20T09:10:11;18.60;76.70
44477;DHT22;30180;44.788;10.366;2023-05-20T09:12:39;18.60;76.70
44477;DHT22;30180;44.788;10.366;2023-05-20T09:15:08;18.60;76.70
44477;DHT22;30180;44.788;10.366;2023-05-20T09:17:36;18.60;77.30
44477;DHT22;30180;44.788;10.366;2023-05-20T09:20:06;18.60;76.70
44477;DHT22;30180;44.788;10.366;2023-05-20T09:22:38;18.60;76.70
44477;DHT22;30180;44.788;10.366;2023-05-20T09:25:07;18.60;76.60
44477;DHT22;30180;44.788;10.366;2023-05-20T09:27:39;18.60;76.70
44477;DHT22;30180;44.788;10.366;2023-05-20T09:30:08;18.60;76.60
44477;DHT22;30180;44.788;10.366;2023-05-20T09:32:38;18.60;76.60
44477;DHT22;30180;44.788;10.366;2023-05-20T09:35:07;18.60;76.60
44477;DHT22;30180;44.788;10.366;2023-05-20T09:37:38;18.60;76.60
44477;DHT22;30180;44.788;10.366;2023-05-20T09:40:11;18.60;76.60
44477;DHT22;30180;44.788;10.366;2023-05-20T09:42:43;18.60;76.60
44477;DHT22;30180;44.788;10.366;2023-05-20T09:45:14;18.60;76.60
44477;DHT22;30180;44.788;10.366;2023-05-20T09:47:43;18.60;76.60
44477;DHT22;30180;44.788;10.366;2023-05-20T09:50:12;18.60;76.60
44477;DHT22;30180;44.788;10.366;2023-05-20T09:52:43;18.60;76.60
44477;DHT22;30180;44.788;10.366;2023-05-20T09:55:11;18.60;76.60
44477;DHT22;30180;44.788;10.366;2023-05-20T09:57:41;18.60;76.60
44477;DHT22;30180;44.788;10.366;2023-05-20T10:00:10;18.60;76.60
44477;DHT22;30180;44.788;10.366;2023-05-20T10:02:42;18.60;76.60
44477;DHT22;30180;44.788;10.366;2023-05-20T10:05:14;18.60;76.60
44477;DHT22;30180;44.788;10.366;2023-05-20T10:08:17;18.60;76.60
44477;DHT22;30180;44.788;10.366;2023-05-20T10:10:51;18.60;76.60
44477;DHT22;30180;44.788;10.366;2023-05-20T10:13:33;18.60;76.60
44477;DHT22;30180;44.788;10.366;2023-05-20T10:16:11;18.60;76.60
44477;DHT22;30180;44.788;10.366;2023-05-20T10:18:51;18.60;76.60
44477;DHT22;30180;44.788;10.366;2023-05-20T10:21:23;18.60;76.70
44477;DHT22;30180;44.788;10.366;2023-05-20T10:24:04;18.60;76.80
44477;DHT22;30180;44.788;10.366;2023-05-20T10:26:36;18.70;76.90
44477;DHT22;30180;44.788;10.366;2023-05-20T10:29:14;18.70;77.50
44477;DHT22;30180;44.788;10.366;2023-05-20T10:31:44;18.70;76.90
44477;DHT22;30180;44.788;10.366;2023-05-20T10:34:14;18.80;77.00
44477;DHT22;30180;44.788;10.366;2023-05-20T10:36:45;18.80;76.90
44477;DHT22;30180;44.788;10.366;2023-05-20T10:39:15;18.80;76.90
44477;DHT22;30180;44.788;10.366;2023-05-20T10:41:44;18.80;76.90
44477;DHT22;30180;44.788;10.366;2023-05-20T10:44:12;18.90;77.00
44477;DHT22;30180;44.788;10.366;2023-05-20T10:46:40;18.90;77.00
44477;DHT22;30180;44.788;10.366;2023-05-20T10:49:17;18.90;77.00
44477;DHT22;30180;44.788;10.366;2023-05-20T10:51:51;19.00;77.00
44477;DHT22;30180;44.788;10.366;2023-05-20T10:54:21;19.00;77.00
44477;DHT22;30180;44.788;10.366;2023-05-20T10:56:51;19.00;77.00
44477;DHT22;30180;44.788;10.366;2023-05-20T10:59:20;19.00;76.90
44477;DHT22;30180;44.788;10.366;2023-05-20T11:01:48;19.00;76.90
44477;DHT22;30180;44.788;10.366;2023-05-20T11:04:17;19.10;77.00
44477;DHT22;30180;44.788;10.366;2023-05-20T11:06:50;19.10;77.00
44477;DHT22;30180;44.788;10.366;2023-05-20T11:09:20;19.10;77.00
44477;DHT22;30180;44.788;10.366;2023-05-20T11:11:49;19.10;76.80
44477;DHT22;30180;44.788;10.366;2023-05-20T11:14:18;19.10;76.70
44477;DHT22;30180;44.788;10.366;2023-05-20T11:16:50;19.10;76.60
44477;DHT22;30180;44.788;10.366;2023-05-20T11:19:19;19.10;76.50
44477;DHT22;30180;44.788;10.366;2023-05-20T11:21:48;19.10;76.50
44477;DHT22;30180;44.788;10.366;2023-05-20T11:24:23;19.10;76.40
44477;DHT22;30180;44.788;10.366;2023-05-20T11:26:54;19.00;76.40
44477;DHT22;30180;44.788;10.366;2023-05-20T11:29:25;19.00;76.40
44477;DHT22;30180;44.788;10.366;2023-05-20T11:31:55;19.00;76.40
44477;DHT22;30180;44.788;10.366;2023-05-20T11:34:23;19.00;76.40
44477;DHT22;30180;44.788;10.366;2023-05-20T11:36:55;19.00;76.50
44477;DHT22;30180;44.788;10.366;2023-05-20T11:39:29;19.00;76.50
44477;DHT22;30180;44.788;10.366;2023-05-20T11:41:57;19.00;76.50
44477;DHT22;30180;44.788;10.366;2023-05-20T11:44:25;18.90;76.40
44477;DHT22;30180;44.788;10.366;2023-05-20T11:46:59;18.90;76.40
44477;DHT22;30180;44.788;10.366;2023-05-20T11:49:27;18.90;76.40
44477;DHT22;30180;44.788;10.366;2023-05-20T11:51:56;18.90;76.40
44477;DHT22;30180;44.788;10.366;2023-05-20T11:54:26;18.90;76.40
44477;DHT22;30180;44.788;10.366;2023-05-20T11:56:54;18.90;76.40
44477;DHT22;30180;44.788;10.366;2023-05-20T11:59:23;18.90;76.40
44477;DHT22;30180;44.788;10.366;2023-05-20T12:01:52;18.90;76.70
44477;DHT22;30180;44.788;10.366;2023-05-20T12:04:20;18.90;76.40
44477;DHT22;30180;44.788;10.366;2023-05-20T12:06:48;18.90;76.40
44477;DHT22;30180;44.788;10.366;2023-05-20T12:09:16;18.90;76.40
44477;DHT22;30180;44.788;10.366;2023-05-20T12:11:46;18.80;76.30
44477;DHT22;30180;44.788;10.366;2023-05-20T12:14:14;18.80;76.30
44477;DHT22;30180;44.788;10.366;2023-05-20T12:16:42;18.80;76.30
44477;DHT22;30180;44.788;10.366;2023-05-20T12:19:11;18.80;76.30
44477;DHT22;30180;44.788;10.366;2023-05-20T12:21:39;18.80;76.30
44477;DHT22;30180;44.788;10.366;2023-05-20T12:24:07;18.80;76.30
44477;DHT22;30180;44.788;10.366;2023-05-20T12:26:36;18.80;76.30
44477;DHT22;30180;44.788;10.366;2023-05-20T12:29:06;18.80;76.40
44477;DHT22;30180;44.788;10.366;2023-05-20T12:31:34;18.80;76.30
44477;DHT22;30180;44.788;10.366;2023-05-20T12:34:02;18.80;76.40
44477;DHT22;30180;44.788;10.366;2023-05-20T12:36:31;18.80;76.40
44477;DHT22;30180;44.788;10.366;2023-05-20T12:38:59;18.80;76.30
44477;DHT22;30180;44.788;10.366;2023-05-20T12:41:27;18.80;76.40
44477;DHT22;30180;44.788;10.366;2023-05-20T12:43:55;18.80;76.40
44477;DHT22;30180;44.788;10.366;2023-05-20T12:46:25;18.80;76.40
44477;DHT22;30180;44.788;10.366;2023-05-20T12:48:54;18.70;76.30
44477;DHT22;30180;44.788;10.366;2023-05-20T12:51:22;18.70;76.30
44477;DHT22;30180;44.788;10.366;2023-05-20T12:53:50;18.70;76.30
44477;DHT22;30180;44.788;10.366;2023-05-20T12:56:19;18.70;76.30
44477;DHT22;30180;44.788;10.366;2023-05-20T12:58:47;18.70;76.30
44477;DHT22;30180;44.788;10.366;2023-05-20T13:01:16;18.70;76.30
44477;DHT22;30180;44.788;10.366;2023-05-20T13:03:45;18.70;76.30
44477;DHT22;30180;44.788;10.366;2023-05-20T13:06:18;18.70;76.30
44477;DHT22;30180;44.788;10.366;2023-05-20T13:08:46;18.70;76.30
44477;DHT22;30180;44.788;10.366;2023-05-20T13:11:14;18.70;76.40
44477;DHT22;30180;44.788;10.366;2023-05-20T13:13:43;18.70;76.30
44477;DHT22;30180;44.788;10.366;2023-05-20T13:16:11;18.70;76.30
44477;DHT22;30180;44.788;10.366;2023-05-20T13:18:39;18.70;76.30
44477;DHT22;30180;44.788;10.366;2023-05-20T13:21:09;18.70;76.30
44477;DHT22;30180;44.788;10.366;2023-05-20T13:23:38;18.70;76.40
44477;DHT22;30180;44.788;10.366;2023-05-20T13:26:07;18.70;76.40
44477;DHT22;30180;44.788;10.366;2023-05-20T13:28:36;18.70;76.40
44477;DHT22;30180;44.788;10.366;2023-05-20T13:31:05;18.70;76.40
44477;DHT22;30180;44.788;10.366;2023-05-20T13:33:33;18.70;76.40
44477;DHT22;30180;44.788;10.366;2023-05-20T13:36:02;18.70;76.40
44477;DHT22;30180;44.788;10.366;2023-05-20T13:38:31;18.70;76.40
44477;DHT22;30180;44.788;10.366;2023-05-20T13:41:02;18.60;76.30
44477;DHT22;30180;44.788;10.366;2023-05-20T13:43:30;18.70;76.40
44477;DHT22;30180;44.788;10.366;2023-05-20T13:45:59;18.60;76.30
44477;DHT22;30180;44.788;10.366;2023-05-20T13:48:27;18.70;76.40
44477;DHT22;30180;44.788;10.366;2023-05-20T13:50:55;18.70;76.40
44477;DHT22;30180;44.788;10.366;2023-05-20T13:53:24;18.60;76.30
44477;DHT22;30180;44.788;10.366;2023-05-20T13:55:53;18.60;76.30
44477;DHT22;30180;44.788;10.366;2023-05-20T13:58:22;18.60;76.30
44477;DHT22;30180;44.788;10.366;2023-05-20T14:00:50;18.60;76.30
44477;DHT22;30180;44.788;10.366;2023-05-20T14:03:19;18.60;76.40
44477;DHT22;30180;44.788;10.366;2023-05-20T14:05:47;18.60;76.30
44477;DHT22;30180;44.788;10.366;2023-05-20T14:08:16;18.60;76.30
44477;DHT22;30180;44.788;10.366;2023-05-20T14:10:44;18.60;76.30
44477;DHT22;30180;44.788;10.366;2023-05-20T14:13:14;18.60;76.30
44477;DHT22;30180;44.788;10.366;2023-05-20T14:15:42;18.60;76.40
44477;DHT22;30180;44.788;10.366;2023-05-20T14:18:10;18.60;76.40
44477;DHT22;30180;44.788;10.366;2023-05-20T14:20:38;18.60;76.40
44477;DHT22;30180;44.788;10.366;2023-05-20T14:23:06;18.60;76.40
44477;DHT22;30180;44.788;10.366;2023-05-20T14:25:35;18.60;76.40
44477;DHT22;30180;44.788;10.366;2023-05-20T14:28:03;18.60;76.50
44477;DHT22;30180;44.788;10.366;2023-05-20T14:30:33;18.60;76.50
44477;DHT22;30180;44.788;10.366;2023-05-20T14:33:02;18.60;76.50
44477;DHT22;30180;44.788;10.366;2023-05-20T14:35:30;18.60;76.50
44477;DHT22;30180;44.788;10.366;2023-05-20T14:37:58;18.60;76.50
44477;DHT22;30180;44.788;10.366;2023-05-20T14:40:27;18.70;76.60
44477;DHT22;30180;44.788;10.366;2023-05-20T14:42:55;18.70;76.60
44477;DHT22;30180;44.788;10.366;2023-05-20T14:45:23;18.70;76.60
44477;DHT22;30180;44.788;10.366;2023-05-20T14:47:53;18.70;76.60
44477;DHT22;30180;44.788;10.366;2023-05-20T14:50:21;18.70;76.70
44477;DHT22;30180;44.788;10.366;2023-05-20T14:52:49;18.70;76.60
44477;DHT22;30180;44.788;10.366;2023-05-20T14:55:17;18.70;76.70
44477;DHT22;30180;44.788;10.366;2023-05-20T14:57:46;18.70;76.70
44477;DHT22;30180;44.788;10.366;2023-05-20T15:00:15;18.80;76.70
44477;DHT22;30180;44.788;10.366;2023-05-20T15:02:43;18.80;76.70
44477;DHT22;30180;44.788;10.366;2023-05-20T15:05:13;18.80;76.70
44477;DHT22;30180;44.788;10.366;2023-05-20T15:07:41;18.80;76.70
44477;DHT22;30180;44.788;10.366;2023-05-20T15:10:10;18.80;76.70
44477;DHT22;30180;44.788;10.366;2023-05-20T15:12:38;18.80;76.70
44477;DHT22;30180;44.788;10.366;2023-05-20T15:15:08;18.80;76.70
44477;DHT22;30180;44.788;10.366;2023-05-20T15:17:36;18.80;76.70
44477;DHT22;30180;44.788;10.366;2023-05-20T15:20:06;18.80;76.70
44477;DHT22;30180;44.788;10.366;2023-05-20T15:22:35;18.80;76.70
44477;DHT22;30180;44.788;10.366;2023-05-20T15:25:04;18.90;76.70
44477;DHT22;30180;44.788;10.366;2023-05-20T15:27:32;18.90;76.70